sensor_id;sensor_type;location;lat;lon;timestamp;temperature;humidity
4431;DHT22;2228;48.140;11.488;2023-02-28T00:01:09;-1.80;1.00
4431;DHT22;2228;48.140;11.488;2023-02-28T00:03:35;-1.80;1.00
4431;DHT22;2228;48.140;11.488;2023-02-28T00:06:03;-1.90;1.00
4431;DHT22;2228;48.140;11.488;2023-02-28T00:08:30;-1.80;1.00
4431;DHT22;2228;48.140;11.488;2023-02-28T00:11:01;-1.80;1.00
4431;DHT22;2228;48.140;11.488;2023-02-28T00:13:29;-1.80;1.00
4431;DHT22;2228;48.140;11.488;2023-02-28T00:16:01;-1.80;1.00
4431;DHT22;2228;48.140;11.488;2023-02-28T00:18:28;-1.90;1.00
4431;DHT22;2228;48.140;11.488;2023-02-28T00:20:55;-1.80;1.00
4431;DHT22;2228;48.140;11.488;2023-02-28T00:23:22;-1.80;1.00
4431;DHT22;2228;48.140;11.488;2023-02-28T00:25:50;-1.90;1.00
4431;DHT22;2228;48.140;11.488;2023-02-28T00:28:17;-2.00;1.00
4431;DHT22;2228;48.140;11.488;2023-02-28T00:30:46;-2.10;1.00
4431;DHT22;2228;48.140;11.488;2023-02-28T00:33:13;-2.00;1.00
4431;DHT22;2228;48.140;11.488;2023-02-28T00:35:41;-2.00;1.00
4431;DHT22;2228;48.140;11.488;2023-02-28T00:38:09;-2.00;1.00
4431;DHT22;2228;48.140;11.488;2023-02-28T00:40:36;-2.10;1.00
4431;DHT22;2228;48.140;11.488;2023-02-28T00:43:03;-2.10;1.00
4431;DHT22;2228;48.140;11.488;2023-02-28T00:45:30;-2.10;1.00
4431;DHT22;2228;48.140;11.488;2023-02-28T00:47:58;-2.10;1.00
4431;DHT22;2228;48.140;11.488;2023-02-28T00:50:25;-2.10;1.00
4431;DHT22;2228;48.140;11.488;2023-02-28T00:52:52;-2.20;1.00
4431;DHT22;2228;48.140;11.488;2023-02-28T00:55:19;-2.20;1.00
4431;DHT22;2228;48.140;11.488;2023-02-28T00:57:46;-2.20;1.00
4431;DHT22;2228;48.140;11.488;2023-02-28T01:00:14;-2.20;1.00
4431;DHT22;2228;48.140;11.488;2023-02-28T01:02:41;-2.20;1.00
4431;DHT22;2228;48.140;11.488;2023-02-28T01:05:09;-2.20;1.00
4431;DHT22;2228;48.140;11.488;2023-02-28T01:07:36;-2.20;1.00
4431;DHT22;2228;48.140;11.488;2023-02-28T01:10:04;-2.20;1.00
4431;DHT22;2228;48.140;11.488;2023-02-28T01:12:31;-2.20;1.00
4431;DHT22;2228;48.140;11.488;2023-02-28T01:14:58;-2.20;1.00
4431;DHT22;2228;48.140;11.488;2023-02-28T01:17:25;-2.20;1.00
4431;DHT22;2228;48.140;11.488;2023-02-28T01:19:53;-2.20;1.00
4431;DHT22;2228;48.140;11.488;2023-02-28T01:22:21;-2.20;1.00
4431;DHT22;2228;48.140;11.488;2023-02-28T01:24:48;-2.30;1.00
4431;DHT22;2228;48.140;11.488;2023-02-28T01:27:15;-2.20;1.00
4431;DHT22;2228;48.140;11.488;2023-02-28T01:29:42;-2.30;1.00
4431;DHT22;2228;48.140;11.488;2023-02-28T01:32:09;-2.20;1.00
4431;DHT22;2228;48.140;11.488;2023-02-28T01:34:36;-2.30;1.00
4431;DHT22;2228;48.140;11.488;2023-02-28T01:37:03;-2.30;1.00
4431;DHT22;2228;48.140;11.488;2023-02-28T01:39:31;-2.40;1.00
4431;DHT22;2228;48.140;11.488;2023-02-28T01:41:58;-2.30;1.00
4431;DHT22;2228;48.140;11.488;2023-02-28T01:44:57;-2.40;1.00
4431;DHT22;2228;48.140;11.488;2023-02-28T01:47:27;-2.30;1.00
4431;DHT22;2228;48.140;11.488;2023-02-28T01:49:54;-2.40;1.00
4431;DHT22;2228;48.140;11.488;2023-02-28T01:52:22;-2.50;1.00
4431;DHT22;2228;48.140;11.488;2023-02-28T01:54:55;-2.50;1.00
4431;DHT22;2228;48.140;11.488;2023-02-28T01:57:25;-2.60;1.00
4431;DHT22;2228;48.140;11.488;2023-02-28T01:59:57;-2.70;1.00
4431;DHT22;2228;48.140;11.488;2023-02-28T02:02:26;-2.60;1.00
4431;DHT22;2228;48.140;11.488;2023-02-28T02:04:57;-2.60;1.00
4431;DHT22;2228;48.140;11.488;2023-02-28T02:07:29;-2.70;1.00
4431;DHT22;2228;48.140;11.488;2023-02-28T02:10:06;-2.60;1.00
4431;DHT22;2228;48.140;11.488;2023-02-28T02:12:51;-2.60;1.00
4431;DHT22;2228;48.140;11.488;2023-02-28T02:15:25;-2.50;1.00
4431;DHT22;2228;48.140;11.488;2023-02-28T02:17:56;-2.60;1.00
4431;DHT22;2228;48.140;11.488;2023-02-28T02:21:02;-2.60;1.00
4431;DHT22;2228;48.140;11.488;2023-02-28T02:24:03;-2.60;1.00
4431;DHT22;2228;48.140;11.488;2023-02-28T02:26:50;-2.60;1.00
4431;DHT22;2228;48.140;11.488;2023-02-28T02:32:44;-2.70;1.00
4431;DHT22;2228;48.140;11.488;2023-02-28T02:35:15;-2.70;1.00
4431;DHT22;2228;48.140;11.488;2023-02-28T02:37:47;-2.70;1.00
4431;DHT22;2228;48.140;11.488;2023-02-28T02:40:20;-2.70;1.00
4431;DHT22;2228;48.140;11.488;2023-02-28T02:42:51;-2.70;1.00
4431;DHT22;2228;48.140;11.488;2023-02-28T02:45:25;-2.80;1.00
4431;DHT22;2228;48.140;11.488;2023-02-28T02:47:53;-2.70;1.00
4431;DHT22;2228;48.140;11.488;2023-02-28T02:50:26;-2.70;1.00
4431;DHT22;2228;48.140;11.488;2023-02-28T02:52:58;-2.80;1.00
4431;DHT22;2228;48.140;11.488;2023-02-28T02:55:29;-2.70;1.00
4431;DHT22;2228;48.140;11.488;2023-02-28T02:57:59;-2.70;1.00
4431;DHT22;2228;48.140;11.488;2023-02-28T03:00:32;-2.70;1.00
4431;DHT22;2228;48.140;11.488;2023-02-28T03:03:01;-2.70;1.00
4431;DHT22;2228;48.140;11.488;2023-02-28T03:05:35;-2.70;1.00
4431;DHT22;2228;48.140;11.488;2023-02-28T03:08:06;-2.70;1.00
4431;DHT22;2228;48.140;11.488;2023-02-28T03:10:36;-2.70;1.00
4431;DHT22;2228;48.140;11.488;2023-02-28T03:13:26;-2.80;1.00
4431;DHT22;2228;48.140;11.488;2023-02-28T03:16:17;-2.70;1.00
4431;DHT22;2228;48.140;11.488;2023-02-28T03:18:54;-2.70;1.00
4431;DHT22;2228;48.140;11.488;2023-02-28T03:21:31;-2.60;1.00
4431;DHT22;2228;48.140;11.488;2023-02-28T03:24:04;-2.70;1.00
4431;DHT22;2228;48.140;11.488;2023-02-28T03:26:34;-2.70;1.00
4431;DHT22;2228;48.140;11.488;2023-02-28T03:29:05;-2.70;1.00
4431;DHT22;2228;48.140;11.488;2023-02-28T03:31:37;-2.80;1.00
4431;DHT22;2228;48.140;11.488;2023-02-28T03:34:08;-2.70;1.00
4431;DHT22;2228;48.140;11.488;2023-02-28T03:36:41;-2.70;1.00
4431;DHT22;2228;48.140;11.488;2023-02-28T03:39:13;-2.80;12.40
4431;DHT22;2228;48.140;11.488;2023-02-28T03:41:44;-2.80;7.80
4431;DHT22;2228;48.140;11.488;2023-02-28T03:44:17;-2.80;4.10
4431;DHT22;2228;48.140;11.488;2023-02-28T03:46:49;-2.90;10.30
4431;DHT22;2228;48.140;11.488;2023-02-28T03:49:22;-2.90;39.80
4431;DHT22;2228;48.140;11.488;2023-02-28T03:51:54;-2.90;52.90
4431;DHT22;2228;48.140;11.488;2023-02-28T03:54:26;-2.80;44.20
4431;DHT22;2228;48.140;11.488;2023-02-28T03:56:57;-2.80;54.10
4431;DHT22;2228;48.140;11.488;2023-02-28T03:59:30;-2.70;47.90
4431;DHT22;2228;48.140;11.488;2023-02-28T04:01:59;-2.70;44.10
4431;DHT22;2228;48.140;11.488;2023-02-28T04:04:27;-2.70;29.70
4431;DHT22;2228;48.140;11.488;2023-02-28T04:07:03;-2.60;45.00
4431;DHT22;2228;48.140;11.488;2023-02-28T04:09:31;-2.70;49.10
4431;DHT22;2228;48.140;11.488;2023-02-28T04:11:58;-2.70;39.60
4431;DHT22;2228;48.140;11.488;2023-02-28T04:14:26;-2.70;67.40
4431;DHT22;2228;48.140;11.488;2023-02-28T04:16:53;-2.60;52.90
4431;DHT22;2228;48.140;11.488;2023-02-28T04:19:20;-2.60;75.50
4431;DHT22;2228;48.140;11.488;2023-02-28T04:21:49;-2.40;71.20
4431;DHT22;2228;48.140;11.488;2023-02-28T04:24:19;-2.20;49.70
4431;DHT22;2228;48.140;11.488;2023-02-28T04:26:48;-2.10;59.00
4431;DHT22;2228;48.140;11.488;2023-02-28T04:29:19;-1.90;41.90
4431;DHT22;2228;48.140;11.488;2023-02-28T04:31:47;-1.90;3.30
4431;DHT22;2228;48.140;11.488;2023-02-28T04:34:14;-1.80;16.30
4431;DHT22;2228;48.140;11.488;2023-02-28T04:36:41;-1.70;2.60
4431;DHT22;2228;48.140;11.488;2023-02-28T04:39:08;-1.70;1.00
4431;DHT22;2228;48.140;11.488;2023-02-28T04:41:37;-1.70;1.00
4431;DHT22;2228;48.140;11.488;2023-02-28T04:44:04;-1.60;1.00
4431;DHT22;2228;48.140;11.488;2023-02-28T04:46:31;-1.70;1.00
4431;DHT22;2228;48.140;11.488;2023-02-28T04:48:58;-1.50;1.00
4431;DHT22;2228;48.140;11.488;2023-02-28T04:51:26;-1.50;1.00
4431;DHT22;2228;48.140;11.488;2023-02-28T04:53:53;-1.60;1.00
4431;DHT22;2228;48.140;11.488;2023-02-28T04:56:20;-1.70;1.00
4431;DHT22;2228;48.140;11.488;2023-02-28T04:58:49;-1.70;1.00
4431;DHT22;2228;48.140;11.488;2023-02-28T05:01:21;-1.60;1.00
4431;DHT22;2228;48.140;11.488;2023-02-28T05:03:48;-1.60;1.00
4431;DHT22;2228;48.140;11.488;2023-02-28T05:06:16;-1.60;1.00
4431;DHT22;2228;48.140;11.488;2023-02-28T05:08:43;-1.60;1.00
4431;DHT22;2228;48.140;11.488;2023-02-28T05:11:15;-1.50;1.00
4431;DHT22;2228;48.140;11.488;2023-02-28T05:13:43;-1.40;1.00
4431;DHT22;2228;48.140;11.488;2023-02-28T05:16:11;-1.40;1.00
4431;DHT22;2228;48.140;11.488;2023-02-28T05:18:38;-1.40;1.00
4431;DHT22;2228;48.140;11.488;2023-02-28T05:21:05;-1.30;1.00
4431;DHT22;2228;48.140;11.488;2023-02-28T05:23:32;-1.20;1.00
4431;DHT22;2228;48.140;11.488;2023-02-28T05:25:59;-1.20;1.00
4431;DHT22;2228;48.140;11.488;2023-02-28T05:28:27;-1.30;1.00
4431;DHT22;2228;48.140;11.488;2023-02-28T05:30:54;-1.30;1.00
4431;DHT22;2228;48.140;11.488;2023-02-28T05:33:22;-1.40;1.00
4431;DHT22;2228;48.140;11.488;2023-02-28T05:35:49;-1.20;1.00
4431;DHT22;2228;48.140;11.488;2023-02-28T05:38:16;-1.20;1.00
4431;DHT22;2228;48.140;11.488;2023-02-28T05:40:43;-1.20;1.00
4431;DHT22;2228;48.140;11.488;2023-02-28T05:43:11;-1.20;1.00
4431;DHT22;2228;48.140;11.488;2023-02-28T05:45:38;-1.20;1.00
4431;DHT22;2228;48.140;11.488;2023-02-28T05:48:05;-1.20;1.00
4431;DHT22;2228;48.140;11.488;2023-02-28T05:50:34;-1.20;1.00
4431;DHT22;2228;48.140;11.488;2023-02-28T05:53:01;-1.10;1.00
4431;DHT22;2228;48.140;11.488;2023-02-28T05:55:28;-1.10;1.00
4431;DHT22;2228;48.140;11.488;2023-02-28T05:57:55;-1.00;1.00
4431;DHT22;2228;48.140;11.488;2023-02-28T06:00:23;-1.00;1.00
4431;DHT22;2228;48.140;11.488;2023-02-28T06:02:49;-1.10;1.00
4431;DHT22;2228;48.140;11.488;2023-02-28T06:05:18;-1.00;1.00
4431;DHT22;2228;48.140;11.488;2023-02-28T06:07:47;-1.00;1.00
4431;DHT22;2228;48.140;11.488;2023-02-28T06:10:15;-0.90;1.00
4431;DHT22;2228;48.140;11.488;2023-02-28T06:12:42;-1.00;1.00
4431;DHT22;2228;48.140;11.488;2023-02-28T06:15:12;-1.00;1.00
4431;DHT22;2228;48.140;11.488;2023-02-28T06:17:40;-0.90;1.00
4431;DHT22;2228;48.140;11.488;2023-02-28T06:20:08;-0.90;1.00
4431;DHT22;2228;48.140;11.488;2023-02-28T06:22:36;-0.90;1.00
4431;DHT22;2228;48.140;11.488;2023-02-28T06:25:05;-0.90;1.00
4431;DHT22;2228;48.140;11.488;2023-02-28T06:27:33;-1.00;1.00
4431;DHT22;2228;48.140;11.488;2023-02-28T06:30:00;-0.90;1.00
4431;DHT22;2228;48.140;11.488;2023-02-28T06:32:27;-0.80;1.00
4431;DHT22;2228;48.140;11.488;2023-02-28T06:34:54;-0.90;1.00
4431;DHT22;2228;48.140;11.488;2023-02-28T06:37:22;-1.00;1.00
4431;DHT22;2228;48.140;11.488;2023-02-28T06:39:51;-0.90;1.00
4431;DHT22;2228;48.140;11.488;2023-02-28T06:42:20;-0.80;1.00
4431;DHT22;2228;48.140;11.488;2023-02-28T06:44:47;-0.80;1.00
4431;DHT22;2228;48.140;11.488;2023-02-28T06:47:14;-0.70;1.00
4431;DHT22;2228;48.140;11.488;2023-02-28T06:49:41;-0.70;1.00
4431;DHT22;2228;48.140;11.488;2023-02-28T06:52:08;-0.60;1.00
4431;DHT22;2228;48.140;11.488;2023-02-28T06:54:36;-0.60;1.00
4431;DHT22;2228;48.140;11.488;2023-02-28T06:57:03;-0.50;1.00
4431;DHT22;2228;48.140;11.488;2023-02-28T06:59:31;-0.40;1.00
4431;DHT22;2228;48.140;11.488;2023-02-28T07:01:58;-0.40;1.00
4431;DHT22;2228;48.140;11.488;2023-02-28T07:04:26;-0.30;1.00
4431;DHT22;2228;48.140;11.488;2023-02-28T07:06:54;-0.30;1.00
4431;DHT22;2228;48.140;11.488;2023-02-28T07:09:21;-0.40;1.00
4431;DHT22;2228;48.140;11.488;2023-02-28T07:11:48;-0.30;1.00
4431;DHT22;2228;48.140;11.488;2023-02-28T07:14:15;-0.40;1.00
4431;DHT22;2228;48.140;11.488;2023-02-28T07:16:43;-0.30;1.00
4431;DHT22;2228;48.140;11.488;2023-02-28T07:19:11;-0.30;1.00
4431;DHT22;2228;48.140;11.488;2023-02-28T07:21:38;-0.20;1.00
4431;DHT22;2228;48.140;11.488;2023-02-28T07:24:06;-0.20;1.00
4431;DHT22;2228;48.140;11.488;2023-02-28T07:26:33;-0.30;1.00
4431;DHT22;2228;48.140;11.488;2023-02-28T07:29:00;-0.30;1.00
4431;DHT22;2228;48.140;11.488;2023-02-28T07:31:27;-0.10;1.00
4431;DHT22;2228;48.140;11.488;2023-02-28T07:33:56;0.00;1.00
4431;DHT22;2228;48.140;11.488;2023-02-28T07:36:22;0.10;1.00
4431;DHT22;2228;48.140;11.488;2023-02-28T07:38:49;-0.10;1.00
4431;DHT22;2228;48.140;11.488;2023-02-28T07:41:17;-0.10;1.00
4431;DHT22;2228;48.140;11.488;2023-02-28T07:43:44;-0.10;1.00
4431;DHT22;2228;48.140;11.488;2023-02-28T07:46:13;-0.10;1.00
4431;DHT22;2228;48.140;11.488;2023-02-28T07:48:41;-0.10;1.00
4431;DHT22;2228;48.140;11.488;2023-02-28T07:51:10;0.00;1.00
4431;DHT22;2228;48.140;11.488;2023-02-28T07:53:37;0.10;1.00
4431;DHT22;2228;48.140;11.488;2023-02-28T07:56:04;0.20;1.00
4431;DHT22;2228;48.140;11.488;2023-02-28T07:58:32;0.40;1.00
4431;DHT22;2228;48.140;11.488;2023-02-28T08:01:05;0.40;1.00
4431;DHT22;2228;48.140;11.488;2023-02-28T08:03:32;0.40;1.00
4431;DHT22;2228;48.140;11.488;2023-02-28T08:05:59;0.40;1.00
4431;DHT22;2228;48.140;11.488;2023-02-28T08:08:29;0.30;1.00
4431;DHT22;2228;48.140;11.488;2023-02-28T08:10:58;0.40;1.00
4431;DHT22;2228;48.140;11.488;2023-02-28T08:13:27;0.50;1.00
4431;DHT22;2228;48.140;11.488;2023-02-28T08:15:54;0.60;1.00
4431;DHT22;2228;48.140;11.488;2023-02-28T08:18:22;0.80;1.00
4431;DHT22;2228;48.140;11.488;2023-02-28T08:20:49;0.80;1.00
4431;DHT22;2228;48.140;11.488;2023-02-28T08:23:16;0.80;1.00
4431;DHT22;2228;48.140;11.488;2023-02-28T08:25:44;0.80;1.00
4431;DHT22;2228;48.140;11.488;2023-02-28T08:28:11;0.80;1.00
4431;DHT22;2228;48.140;11.488;2023-02-28T08:30:38;0.80;1.00
4431;DHT22;2228;48.140;11.488;2023-02-28T08:33:06;0.90;1.00
4431;DHT22;2228;48.140;11.488;2023-02-28T08:35:35;0.90;1.00
4431;DHT22;2228;48.140;11.488;2023-02-28T08:38:02;0.90;1.00
4431;DHT22;2228;48.140;11.488;2023-02-28T08:40:29;1.10;1.00
4431;DHT22;2228;48.140;11.488;2023-02-28T08:42:58;1.30;1.00
4431;DHT22;2228;48.140;11.488;2023-02-28T08:45:25;1.30;1.00
4431;DHT22;2228;48.140;11.488;2023-02-28T08:47:53;1.40;1.00
4431;DHT22;2228;48.140;11.488;2023-02-28T08:50:22;1.30;1.00
4431;DHT22;2228;48.140;11.488;2023-02-28T08:52:49;1.40;1.00
4431;DHT22;2228;48.140;11.488;2023-02-28T08:55:16;1.30;1.00
4431;DHT22;2228;48.140;11.488;2023-02-28T08:57:43;1.40;1.00
4431;DHT22;2228;48.140;11.488;2023-02-28T09:00:12;1.50;1.00
4431;DHT22;2228;48.140;11.488;2023-02-28T09:02:40;1.50;1.00
4431;DHT22;2228;48.140;11.488;2023-02-28T09:05:08;1.50;1.00
4431;DHT22;2228;48.140;11.488;2023-02-28T09:07:35;1.70;1.00
4431;DHT22;2228;48.140;11.488;2023-02-28T09:10:02;1.80;1.00
4431;DHT22;2228;48.140;11.488;2023-02-28T09:12:33;1.90;1.00
4431;DHT22;2228;48.140;11.488;2023-02-28T09:15:00;2.10;1.00
4431;DHT22;2228;48.140;11.488;2023-02-28T09:17:28;2.20;1.00
4431;DHT22;2228;48.140;11.488;2023-02-28T09:19:55;2.20;1.00
4431;DHT22;2228;48.140;11.488;2023-02-28T09:22:22;2.40;1.00
4431;DHT22;2228;48.140;11.488;2023-02-28T09:24:49;2.50;1.00
4431;DHT22;2228;48.140;11.488;2023-02-28T09:27:16;2.40;1.00
4431;DHT22;2228;48.140;11.488;2023-02-28T09:29:43;2.30;1.00
4431;DHT22;2228;48.140;11.488;2023-02-28T09:32:10;2.30;1.00
4431;DHT22;2228;48.140;11.488;2023-02-28T09:34:38;2.40;1.00
4431;DHT22;2228;48.140;11.488;2023-02-28T09:37:05;2.40;1.00
4431;DHT22;2228;48.140;11.488;2023-02-28T09:39:32;2.50;1.00
4431;DHT22;2228;48.140;11.488;2023-02-28T09:41:59;2.70;1.00
4431;DHT22;2228;48.140;11.488;2023-02-28T09:44:31;2.80;1.00
4431;DHT22;2228;48.140;11.488;2023-02-28T09:47:04;3.00;1.00
4431;DHT22;2228;48.140;11.488;2023-02-28T09:49:40;2.90;1.00
4431;DHT22;2228;48.140;11.488;2023-02-28T09:52:10;2.90;1.00
4431;DHT22;2228;48.140;11.488;2023-02-28T09:54:38;3.00;1.00
4431;DHT22;2228;48.140;11.488;2023-02-28T09:57:08;3.10;1.00
4431;DHT22;2228;48.140;11.488;2023-02-28T09:59:45;3.30;1.00
4431;DHT22;2228;48.140;11.488;2023-02-28T10:02:28;3.50;1.00
4431;DHT22;2228;48.140;11.488;2023-02-28T10:05:07;3.70;1.00
4431;DHT22;2228;48.140;11.488;2023-02-28T10:07:47;3.60;1.00
4431;DHT22;2228;48.140;11.488;2023-02-28T10:10:22;3.50;1.00
4431;DHT22;2228;48.140;11.488;2023-02-28T10:12:52;3.60;1.00
4431;DHT22;2228;48.140;11.488;2023-02-28T10:15:22;3.70;1.00
4431;DHT22;2228;48.140;11.488;2023-02-28T10:17:54;3.90;1.00
4431;DHT22;2228;48.140;11.488;2023-02-28T10:20:24;4.00;1.00
4431;DHT22;2228;48.140;11.488;2023-02-28T10:23:04;4.00;1.00
4431;DHT22;2228;48.140;11.488;2023-02-28T10:25:34;4.30;1.00
4431;DHT22;2228;48.140;11.488;2023-02-28T10:28:08;4.50;1.00
4431;DHT22;2228;48.140;11.488;2023-02-28T10:30:39;4.70;1.00
4431;DHT22;2228;48.140;11.488;2023-02-28T10:33:14;5.20;1.00
4431;DHT22;2228;48.140;11.488;2023-02-28T10:35:45;5.40;1.00
4431;DHT22;2228;48.140;11.488;2023-02-28T10:38:17;5.60;1.00
4431;DHT22;2228;48.140;11.488;2023-02-28T10:40:44;5.40;1.00
4431;DHT22;2228;48.140;11.488;2023-02-28T10:43:22;5.40;1.00
4431;DHT22;2228;48.140;11.488;2023-02-28T10:45:56;5.60;1.00
4431;DHT22;2228;48.140;11.488;2023-02-28T10:48:33;5.60;1.00
4431;DHT22;2228;48.140;11.488;2023-02-28T10:51:03;5.80;1.00
4431;DHT22;2228;48.140;11.488;2023-02-28T10:53:49;5.90;1.00
4431;DHT22;2228;48.140;11.488;2023-02-28T10:56:19;5.90;1.00
4431;DHT22;2228;48.140;11.488;2023-02-28T10:58:53;5.90;1.00
4431;DHT22;2228;48.140;11.488;2023-02-28T11:01:22;6.20;1.00
4431;DHT22;2228;48.140;11.488;2023-02-28T11:03:50;6.60;1.00
4431;DHT22;2228;48.140;11.488;2023-02-28T11:06:20;6.90;1.00
4431;DHT22;2228;48.140;11.488;2023-02-28T11:08:50;7.00;1.00
4431;DHT22;2228;48.140;11.488;2023-02-28T11:11:19;6.90;1.00
4431;DHT22;2228;48.140;11.488;2023-02-28T11:13:47;6.70;1.00
4431;DHT22;2228;48.140;11.488;2023-02-28T11:16:17;6.60;1.00
4431;DHT22;2228;48.140;11.488;2023-02-28T11:18:48;6.80;1.00
4431;DHT22;2228;48.140;11.488;2023-02-28T11:21:21;7.00;1.00
4431;DHT22;2228;48.140;11.488;2023-02-28T11:23:51;6.70;1.00
4431;DHT22;2228;48.140;11.488;2023-02-28T11:26:40;6.70;1.00
4431;DHT22;2228;48.140;11.488;2023-02-28T11:29:17;7.70;1.00
4431;DHT22;2228;48.140;11.488;2023-02-28T11:32:02;7.90;1.00
4431;DHT22;2228;48.140;11.488;2023-02-28T11:34:30;8.30;1.00
4431;DHT22;2228;48.140;11.488;2023-02-28T11:36:59;8.20;1.00
4431;DHT22;2228;48.140;11.488;2023-02-28T11:39:33;8.00;1.00
4431;DHT22;2228;48.140;11.488;2023-02-28T11:42:43;8.00;1.00
4431;DHT22;2228;48.140;11.488;2023-02-28T11:45:31;8.00;1.00
4431;DHT22;2228;48.140;11.488;2023-02-28T11:48:08;8.20;1.00
4431;DHT22;2228;48.140;11.488;2023-02-28T11:50:54;9.00;1.00
4431;DHT22;2228;48.140;11.488;2023-02-28T11:56:30;9.70;1.00
4431;DHT22;2228;48.140;11.488;2023-02-28T11:59:08;9.80;1.00
4431;DHT22;2228;48.140;11.488;2023-02-28T12:01:47;9.80;1.00
4431;DHT22;2228;48.140;11.488;2023-02-28T12:04:26;10.20;1.00
4431;DHT22;2228;48.140;11.488;2023-02-28T12:07:03;10.20;1.00
4431;DHT22;2228;48.140;11.488;2023-02-28T12:09:47;10.50;1.00
4431;DHT22;2228;48.140;11.488;2023-02-28T12:12:25;11.10;1.00
4431;DHT22;2228;48.140;11.488;2023-02-28T12:15:26;11.30;1.00
4431;DHT22;2228;48.140;11.488;2023-02-28T12:18:06;11.00;1.00
4431;DHT22;2228;48.140;11.488;2023-02-28T12:20:40;11.50;1.00
4431;DHT22;2228;48.140;11.488;2023-02-28T12:23:25;11.60;1.00
4431;DHT22;2228;48.140;11.488;2023-02-28T12:26:09;11.90;1.00
4431;DHT22;2228;48.140;11.488;2023-02-28T12:28:42;11.90;1.00
4431;DHT22;2228;48.140;11.488;2023-02-28T12:31:17;11.70;1.00
4431;DHT22;2228;48.140;11.488;2023-02-28T12:33:48;12.20;1.00
4431;DHT22;2228;48.140;11.488;2023-02-28T12:36:19;12.90;1.00
4431;DHT22;2228;48.140;11.488;2023-02-28T12:38:50;13.70;1.00
4431;DHT22;2228;48.140;11.488;2023-02-28T12:41:27;14.00;1.00
4431;DHT22;2228;48.140;11.488;2023-02-28T12:44:00;13.60;1.00
4431;DHT22;2228;48.140;11.488;2023-02-28T12:46:30;13.60;1.00
4431;DHT22;2228;48.140;11.488;2023-02-28T12:49:04;13.80;1.00
4431;DHT22;2228;48.140;11.488;2023-02-28T12:51:32;14.20;1.00
4431;DHT22;2228;48.140;11.488;2023-02-28T12:54:12;14.00;1.00
4431;DHT22;2228;48.140;11.488;2023-02-28T12:56:48;13.40;1.00
4431;DHT22;2228;48.140;11.488;2023-02-28T12:59:23;12.90;1.00
4431;DHT22;2228;48.140;11.488;2023-02-28T13:02:24;12.20;1.00
4431;DHT22;2228;48.140;11.488;2023-02-28T13:10:57;11.30;1.00
4431;DHT22;2228;48.140;11.488;2023-02-28T13:13:28;10.80;1.00
4431;DHT22;2228;48.140;11.488;2023-02-28T13:16:03;10.10;1.00
4431;DHT22;2228;48.140;11.488;2023-02-28T13:18:33;9.40;1.00
4431;DHT22;2228;48.140;11.488;2023-02-28T13:21:02;9.30;1.00
4431;DHT22;2228;48.140;11.488;2023-02-28T13:24:02;9.80;1.00
4431;DHT22;2228;48.140;11.488;2023-02-28T13:29:32;9.40;1.00
4431;DHT22;2228;48.140;11.488;2023-02-28T13:32:32;9.50;1.00
4431;DHT22;2228;48.140;11.488;2023-02-28T13:35:15;9.50;1.00
4431;DHT22;2228;48.140;11.488;2023-02-28T13:37:43;9.40;1.00
4431;DHT22;2228;48.140;11.488;2023-02-28T13:40:31;9.20;1.00
4431;DHT22;2228;48.140;11.488;2023-02-28T13:43:08;8.90;1.00
4431;DHT22;2228;48.140;11.488;2023-02-28T13:45:36;8.70;1.00
4431;DHT22;2228;48.140;11.488;2023-02-28T13:48:16;8.60;1.00
4431;DHT22;2228;48.140;11.488;2023-02-28T13:50:44;8.60;1.00
4431;DHT22;2228;48.140;11.488;2023-02-28T13:53:40;8.40;1.00
4431;DHT22;2228;48.140;11.488;2023-02-28T13:56:40;8.10;1.00
4431;DHT22;2228;48.140;11.488;2023-02-28T13:59:19;7.90;1.00
4431;DHT22;2228;48.140;11.488;2023-02-28T14:02:03;7.90;1.00
4431;DHT22;2228;48.140;11.488;2023-02-28T14:04:53;8.00;1.00
4431;DHT22;2228;48.140;11.488;2023-02-28T14:07:26;8.60;1.00
4431;DHT22;2228;48.140;11.488;2023-02-28T14:10:01;8.90;1.00
4431;DHT22;2228;48.140;11.488;2023-02-28T14:12:53;9.10;1.00
4431;DHT22;2228;48.140;11.488;2023-02-28T14:15:41;9.70;1.00
4431;DHT22;2228;48.140;11.488;2023-02-28T14:18:22;9.60;1.00
4431;DHT22;2228;48.140;11.488;2023-02-28T14:20:55;9.70;1.00
4431;DHT22;2228;48.140;11.488;2023-02-28T14:23:42;10.00;1.00
4431;DHT22;2228;48.140;11.488;2023-02-28T14:26:19;10.10;1.00
4431;DHT22;2228;48.140;11.488;2023-02-28T14:29:03;10.40;1.00
4431;DHT22;2228;48.140;11.488;2023-02-28T14:31:38;10.00;1.00
4431;DHT22;2228;48.140;11.488;2023-02-28T14:34:24;9.70;1.00
4431;DHT22;2228;48.140;11.488;2023-02-28T14:36:53;9.10;1.00
4431;DHT22;2228;48.140;11.488;2023-02-28T14:39:24;8.80;1.00
4431;DHT22;2228;48.140;11.488;2023-02-28T14:41:51;8.50;1.00
4431;DHT22;2228;48.140;11.488;2023-02-28T14:44:20;8.70;1.00
4431;DHT22;2228;48.140;11.488;2023-02-28T14:46:50;9.50;1.00
4431;DHT22;2228;48.140;11.488;2023-02-28T14:49:21;9.90;1.00
4431;DHT22;2228;48.140;11.488;2023-02-28T14:51:50;9.80;1.00
4431;DHT22;2228;48.140;11.488;2023-02-28T14:54:28;9.80;1.00
4431;DHT22;2228;48.140;11.488;2023-02-28T14:56:59;9.80;1.00
4431;DHT22;2228;48.140;11.488;2023-02-28T14:59:31;9.50;1.00
4431;DHT22;2228;48.140;11.488;2023-02-28T15:02:20;9.50;1.00
4431;DHT22;2228;48.140;11.488;2023-02-28T15:04:56;9.50;1.00
4431;DHT22;2228;48.140;11.488;2023-02-28T15:07:23;9.40;1.00
4431;DHT22;2228;48.140;11.488;2023-02-28T15:10:13;9.40;1.00
4431;DHT22;2228;48.140;11.488;2023-02-28T15:12:50;9.70;1.00
4431;DHT22;2228;48.140;11.488;2023-02-28T15:15:18;10.20;1.00
4431;DHT22;2228;48.140;11.488;2023-02-28T15:17:50;10.30;1.00
4431;DHT22;2228;48.140;11.488;2023-02-28T15:20:20;10.20;1.00
4431;DHT22;2228;48.140;11.488;2023-02-28T15:22:52;10.40;1.00
4431;DHT22;2228;48.140;11.488;2023-02-28T15:25:22;10.70;1.00
4431;DHT22;2228;48.140;11.488;2023-02-28T15:27:51;11.20;1.00
4431;DHT22;2228;48.140;11.488;2023-02-28T15:30:21;11.40;1.00
4431;DHT22;2228;48.140;11.488;2023-02-28T15:33:06;11.40;1.00
4431;DHT22;2228;48.140;11.488;2023-02-28T15:35:35;11.10;1.00
4431;DHT22;2228;48.140;11.488;2023-02-28T15:38:08;10.50;1.00
4431;DHT22;2228;48.140;11.488;2023-02-28T15:40:42;9.90;1.00
4431;DHT22;2228;48.140;11.488;2023-02-28T15:43:14;9.70;1.00
4431;DHT22;2228;48.140;11.488;2023-02-28T15:45:45;9.30;1.00
4431;DHT22;2228;48.140;11.488;2023-02-28T15:48:18;9.10;1.00
4431;DHT22;2228;48.140;11.488;2023-02-28T15:50:50;9.00;1.00
4431;DHT22;2228;48.140;11.488;2023-02-28T15:53:21;8.90;1.00
4431;DHT22;2228;48.140;11.488;2023-02-28T15:56:20;8.90;1.00
4431;DHT22;2228;48.140;11.488;2023-02-28T15:58:49;8.70;1.00
4431;DHT22;2228;48.140;11.488;2023-02-28T16:01:21;8.70;1.00
4431;DHT22;2228;48.140;11.488;2023-02-28T16:03:51;8.40;1.00
4431;DHT22;2228;48.140;11.488;2023-02-28T16:06:33;8.20;1.00
4431;DHT22;2228;48.140;11.488;2023-02-28T16:09:02;7.90;1.00
4431;DHT22;2228;48.140;11.488;2023-02-28T16:11:37;7.50;1.00
4431;DHT22;2228;48.140;11.488;2023-02-28T16:14:05;7.10;1.00
4431;DHT22;2228;48.140;11.488;2023-02-28T16:16:33;6.70;1.00
4431;DHT22;2228;48.140;11.488;2023-02-28T16:19:00;6.40;1.00
4431;DHT22;2228;48.140;11.488;2023-02-28T16:21:31;6.00;1.00
4431;DHT22;2228;48.140;11.488;2023-02-28T16:23:58;5.80;1.00
4431;DHT22;2228;48.140;11.488;2023-02-28T16:26:26;5.40;1.00
4431;DHT22;2228;48.140;11.488;2023-02-28T16:28:54;5.10;1.00
4431;DHT22;2228;48.140;11.488;2023-02-28T16:31:21;5.00;1.00
4431;DHT22;2228;48.140;11.488;2023-02-28T16:33:48;4.70;1.00
4431;DHT22;2228;48.140;11.488;2023-02-28T16:36:17;4.50;1.00
4431;DHT22;2228;48.140;11.488;2023-02-28T16:38:46;4.30;1.00
4431;DHT22;2228;48.140;11.488;2023-02-28T16:41:17;4.10;1.00
4431;DHT22;2228;48.140;11.488;2023-02-28T16:43:46;3.90;1.00
4431;DHT22;2228;48.140;11.488;2023-02-28T16:46:15;3.80;1.00
4431;DHT22;2228;48.140;11.488;2023-02-28T16:48:42;3.80;1.00
4431;DHT22;2228;48.140;11.488;2023-02-28T16:51:12;3.70;1.00